sensor_id;sensor_type;location;lat;lon;timestamp;pressure;altitude;pressure_sealevel;temperature;humidity
15604;BME280;7902;49.042;9.092;2023-04-04T00:01:56;99998.16;;;7.21;44.58
15604;BME280;7902;49.042;9.092;2023-04-04T00:04:23;99997.53;;;7.16;44.77
15604;BME280;7902;49.042;9.092;2023-04-04T00:06:49;99996.50;;;7.20;45.10
15604;BME280;7902;49.042;9.092;2023-04-04T00:09:16;99995.66;;;7.20;44.70
15604;BME280;7902;49.042;9.092;2023-04-04T00:11:42;99987.28;;;7.12;44.80
15604;BME280;7902;49.042;9.092;2023-04-04T00:14:08;99980.19;;;7.15;45.20
15604;BME280;7902;49.042;9.092;2023-04-04T00:16:34;99989.59;;;6.99;45.32
15604;BME280;7902;49.042;9.092;2023-04-04T00:19:00;99992.06;;;7.02;45.26
15604;BME280;7902;49.042;9.092;2023-04-04T00:21:25;99983.22;;;7.06;45.47
15604;BME280;7902;49.042;9.092;2023-04-04T00:23:58;99986.97;;;6.99;45.10
15604;BME280;7902;49.042;9.092;2023-04-04T00:26:24;99986.19;;;6.97;45.56
15604;BME280;7902;49.042;9.092;2023-04-04T00:28:51;99985.56;;;6.92;45.71
15604;BME280;7902;49.042;9.092;2023-04-04T00:31:17;99979.41;;;6.93;45.43
15604;BME280;7902;49.042;9.092;2023-04-04T00:33:44;99987.13;;;6.96;45.40
15604;BME280;7902;49.042;9.092;2023-04-04T00:36:10;99982.56;;;6.81;46.20
15604;BME280;7902;49.042;9.092;2023-04-04T00:38:36;99981.00;;;6.77;45.72
15604;BME280;7902;49.042;9.092;2023-04-04T00:41:02;99974.94;;;6.76;46.17
15604;BME280;7902;49.042;9.092;2023-04-04T00:43:28;99979.56;;;6.70;46.15
15604;BME280;7902;49.042;9.092;2023-04-04T00:45:54;99969.00;;;6.73;46.08
15604;BME280;7902;49.042;9.092;2023-04-04T00:48:21;99975.13;;;6.72;46.42
15604;BME280;7902;49.042;9.092;2023-04-04T00:50:49;99966.69;;;6.65;46.35
15604;BME280;7902;49.042;9.092;2023-04-04T00:53:15;99960.56;;;6.66;46.52
15604;BME280;7902;49.042;9.092;2023-04-04T00:55:41;99965.84;;;6.65;45.90
15604;BME280;7902;49.042;9.092;2023-04-04T00:58:09;99959.06;;;6.60;46.43
15604;BME280;7902;49.042;9.092;2023-04-04T01:00:35;99956.59;;;6.57;46.23
15604;BME280;7902;49.042;9.092;2023-04-04T01:03:02;99955.81;;;6.55;46.63
15604;BME280;7902;49.042;9.092;2023-04-04T01:05:30;99957.66;;;6.53;45.99
15604;BME280;7902;49.042;9.092;2023-04-04T01:07:56;99966.53;;;6.49;46.67
15604;BME280;7902;49.042;9.092;2023-04-04T01:10:22;99967.16;;;6.54;46.08
15604;BME280;7902;49.042;9.092;2023-04-04T01:12:48;99963.06;;;6.49;47.13
15604;BME280;7902;49.042;9.092;2023-04-04T01:15:14;99963.59;;;6.57;47.02
15604;BME280;7902;49.042;9.092;2023-04-04T01:17:41;99961.41;;;6.46;47.07
15604;BME280;7902;49.042;9.092;2023-04-04T01:20:14;99956.09;;;6.49;46.22
15604;BME280;7902;49.042;9.092;2023-04-04T01:22:42;99957.09;;;6.45;46.81
15604;BME280;7902;49.042;9.092;2023-04-04T01:25:10;99956.63;;;6.36;46.67
15604;BME280;7902;49.042;9.092;2023-04-04T01:27:36;99958.91;;;6.45;46.76
15604;BME280;7902;49.042;9.092;2023-04-04T01:30:04;99953.88;;;6.40;46.76
15604;BME280;7902;49.042;9.092;2023-04-04T01:32:39;99953.78;;;6.42;46.98
15604;BME280;7902;49.042;9.092;2023-04-04T01:35:20;99949.75;;;6.35;47.41
15604;BME280;7902;49.042;9.092;2023-04-04T01:37:48;99948.72;;;6.39;47.10
15604;BME280;7902;49.042;9.092;2023-04-04T01:40:20;99948.03;;;6.34;47.29
15604;BME280;7902;49.042;9.092;2023-04-04T01:42:47;99946.16;;;6.37;46.72
15604;BME280;7902;49.042;9.092;2023-04-04T01:45:13;99945.91;;;6.43;46.66
15604;BME280;7902;49.042;9.092;2023-04-04T01:47:40;99947.19;;;6.33;47.23
15604;BME280;7902;49.042;9.092;2023-04-04T01:50:07;99939.13;;;6.39;46.79
15604;BME280;7902;49.042;9.092;2023-04-04T01:52:34;99942.63;;;6.38;46.88
15604;BME280;7902;49.042;9.092;2023-04-04T01:55:00;99934.47;;;6.46;46.75
15604;BME280;7902;49.042;9.092;2023-04-04T01:57:27;99942.38;;;6.44;46.54
15604;BME280;7902;49.042;9.092;2023-04-04T01:59:53;99940.41;;;6.29;46.62
15604;BME280;7902;49.042;9.092;2023-04-04T02:02:18;99937.16;;;6.44;46.56
15604;BME280;7902;49.042;9.092;2023-04-04T02:04:45;99936.31;;;6.44;46.44
15604;BME280;7902;49.042;9.092;2023-04-04T02:07:10;99934.88;;;6.37;46.66
15604;BME280;7902;49.042;9.092;2023-04-04T02:09:36;99936.44;;;6.41;46.45
15604;BME280;7902;49.042;9.092;2023-04-04T02:12:03;99932.41;;;6.34;47.06
15604;BME280;7902;49.042;9.092;2023-04-04T02:14:29;99929.97;;;6.29;46.88
15604;BME280;7902;49.042;9.092;2023-04-04T02:16:55;99936.09;;;6.28;46.70
15604;BME280;7902;49.042;9.092;2023-04-04T02:19:20;99941.47;;;6.25;47.05
15604;BME280;7902;49.042;9.092;2023-04-04T02:21:46;99933.94;;;6.17;46.96
15604;BME280;7902;49.042;9.092;2023-04-04T02:24:13;99933.34;;;6.11;47.12
15604;BME280;7902;49.042;9.092;2023-04-04T02:26:38;99928.00;;;6.14;46.70
15604;BME280;7902;49.042;9.092;2023-04-04T02:29:05;99931.78;;;6.07;47.36
15604;BME280;7902;49.042;9.092;2023-04-04T02:31:31;99932.97;;;5.98;47.88
15604;BME280;7902;49.042;9.092;2023-04-04T02:33:56;99935.69;;;5.97;47.53
15604;BME280;7902;49.042;9.092;2023-04-04T02:36:22;99936.53;;;5.97;47.40
15604;BME280;7902;49.042;9.092;2023-04-04T02:38:48;99931.38;;;5.96;47.70
15604;BME280;7902;49.042;9.092;2023-04-04T02:41:14;99927.41;;;5.86;47.74
15604;BME280;7902;49.042;9.092;2023-04-04T02:43:40;99930.06;;;5.84;48.02
15604;BME280;7902;49.042;9.092;2023-04-04T02:46:06;99930.84;;;5.88;47.28
15604;BME280;7902;49.042;9.092;2023-04-04T02:48:32;99928.25;;;5.86;47.51
15604;BME280;7902;49.042;9.092;2023-04-04T02:50:58;99925.81;;;5.82;48.14
15604;BME280;7902;49.042;9.092;2023-04-04T02:53:24;99923.00;;;5.88;47.68
15604;BME280;7902;49.042;9.092;2023-04-04T02:55:50;99925.69;;;5.85;47.26
15604;BME280;7902;49.042;9.092;2023-04-04T02:58:15;99922.31;;;5.83;47.79
15604;BME280;7902;49.042;9.092;2023-04-04T03:00:42;99917.03;;;5.84;47.54
15604;BME280;7902;49.042;9.092;2023-04-04T03:03:07;99922.31;;;5.83;47.87
15604;BME280;7902;49.042;9.092;2023-04-04T03:05:33;99921.59;;;5.79;47.81
15604;BME280;7902;49.042;9.092;2023-04-04T03:07:59;99924.97;;;5.81;47.79
15604;BME280;7902;49.042;9.092;2023-04-04T03:10:27;99922.69;;;5.73;47.64
15604;BME280;7902;49.042;9.092;2023-04-04T03:12:54;99929.47;;;5.78;47.78
15604;BME280;7902;49.042;9.092;2023-04-04T03:15:21;99927.47;;;5.62;47.91
15604;BME280;7902;49.042;9.092;2023-04-04T03:17:47;99916.50;;;5.76;47.49
15604;BME280;7902;49.042;9.092;2023-04-04T03:20:13;99920.50;;;5.63;47.61
15604;BME280;7902;49.042;9.092;2023-04-04T03:22:40;99921.34;;;5.63;47.98
15604;BME280;7902;49.042;9.092;2023-04-04T03:25:07;99926.56;;;5.63;47.97
15604;BME280;7902;49.042;9.092;2023-04-04T03:27:33;99925.16;;;5.55;48.23
15604;BME280;7902;49.042;9.092;2023-04-04T03:29:59;99927.63;;;5.58;47.78
15604;BME280;7902;49.042;9.092;2023-04-04T03:32:26;99917.72;;;5.46;48.31
15604;BME280;7902;49.042;9.092;2023-04-04T03:34:52;99916.69;;;5.50;48.42
15604;BME280;7902;49.042;9.092;2023-04-04T03:37:18;99914.06;;;5.50;48.33
15604;BME280;7902;49.042;9.092;2023-04-04T03:39:44;99918.78;;;5.40;48.55
15604;BME280;7902;49.042;9.092;2023-04-04T03:42:10;99924.38;;;5.53;48.50
15604;BME280;7902;49.042;9.092;2023-04-04T03:44:40;99914.06;;;5.50;48.09
15604;BME280;7902;49.042;9.092;2023-04-04T03:47:06;99913.81;;;5.56;48.47
15604;BME280;7902;49.042;9.092;2023-04-04T03:49:34;99911.56;;;5.47;48.29
15604;BME280;7902;49.042;9.092;2023-04-04T03:52:00;99914.31;;;5.44;47.99
15604;BME280;7902;49.042;9.092;2023-04-04T03:54:27;99919.81;;;5.36;48.19
15604;BME280;7902;49.042;9.092;2023-04-04T03:56:54;99914.47;;;5.39;48.48
15604;BME280;7902;49.042;9.092;2023-04-04T03:59:20;99913.81;;;5.34;48.74
15604;BME280;7902;49.042;9.092;2023-04-04T04:01:46;99919.16;;;5.31;48.77
15604;BME280;7902;49.042;9.092;2023-04-04T04:04:12;99919.72;;;5.38;48.34
15604;BME280;7902;49.042;9.092;2023-04-04T04:06:38;99918.16;;;5.34;48.47
15604;BME280;7902;49.042;9.092;2023-04-04T04:09:04;99922.78;;;5.27;48.83
15604;BME280;7902;49.042;9.092;2023-04-04T04:11:30;99920.22;;;5.25;48.81
15604;BME280;7902;49.042;9.092;2023-04-04T04:13:55;99924.44;;;5.28;48.88
15604;BME280;7902;49.042;9.092;2023-04-04T04:16:21;99922.78;;;5.27;48.64
15604;BME280;7902;49.042;9.092;2023-04-04T04:18:47;99928.03;;;5.25;48.57
15604;BME280;7902;49.042;9.092;2023-04-04T04:21:13;99927.31;;;5.22;49.22
15604;BME280;7902;49.042;9.092;2023-04-04T04:23:39;99937.03;;;5.17;49.00
15604;BME280;7902;49.042;9.092;2023-04-04T04:26:05;99927.16;;;5.25;49.14
15604;BME280;7902;49.042;9.092;2023-04-04T04:28:31;99919.66;;;5.17;49.05
15604;BME280;7902;49.042;9.092;2023-04-04T04:31:07;99924.38;;;5.08;49.16
15604;BME280;7902;49.042;9.092;2023-04-04T04:33:33;99930.47;;;5.07;49.17
15604;BME280;7902;49.042;9.092;2023-04-04T04:36:03;99928.59;;;5.10;49.14
15604;BME280;7902;49.042;9.092;2023-04-04T04:38:30;99922.09;;;4.99;49.29
15604;BME280;7902;49.042;9.092;2023-04-04T04:40:56;99930.25;;;5.13;49.13
15604;BME280;7902;49.042;9.092;2023-04-04T04:43:23;99925.69;;;4.95;49.28
15604;BME280;7902;49.042;9.092;2023-04-04T04:45:49;99925.69;;;4.95;49.62
15604;BME280;7902;49.042;9.092;2023-04-04T04:48:16;99932.59;;;4.96;49.67
15604;BME280;7902;49.042;9.092;2023-04-04T04:50:46;99932.44;;;5.00;49.39
15604;BME280;7902;49.042;9.092;2023-04-04T04:53:15;99932.25;;;4.81;49.90
15604;BME280;7902;49.042;9.092;2023-04-04T04:55:41;99939.00;;;4.87;49.86
15604;BME280;7902;49.042;9.092;2023-04-04T04:58:08;99939.13;;;4.84;49.86
15604;BME280;7902;49.042;9.092;2023-04-04T05:00:36;99926.66;;;4.92;49.87
15604;BME280;7902;49.042;9.092;2023-04-04T05:03:03;99935.53;;;4.86;49.97
15604;BME280;7902;49.042;9.092;2023-04-04T05:05:34;99936.69;;;4.79;49.89
15604;BME280;7902;49.042;9.092;2023-04-04T05:08:01;99934.13;;;4.78;49.99
15604;BME280;7902;49.042;9.092;2023-04-04T05:10:27;99935.88;;;4.77;49.99
15604;BME280;7902;49.042;9.092;2023-04-04T05:12:53;99940.66;;;4.65;50.07
15604;BME280;7902;49.042;9.092;2023-04-04T05:15:19;99939.53;;;4.72;49.92
15604;BME280;7902;49.042;9.092;2023-04-04T05:17:46;99944.00;;;4.68;50.17
15604;BME280;7902;49.042;9.092;2023-04-04T05:20:12;99928.34;;;4.70;50.19
15604;BME280;7902;49.042;9.092;2023-04-04T05:22:44;99941.53;;;4.65;50.37
15604;BME280;7902;49.042;9.092;2023-04-04T05:25:11;99939.53;;;4.72;49.91
15604;BME280;7902;49.042;9.092;2023-04-04T05:27:39;99941.06;;;4.77;50.31
15604;BME280;7902;49.042;9.092;2023-04-04T05:30:06;99942.13;;;4.72;49.95
15604;BME280;7902;49.042;9.092;2023-04-04T05:32:34;99946.41;;;4.74;50.17
15604;BME280;7902;49.042;9.092;2023-04-04T05:35:00;99937.63;;;4.77;50.28
15604;BME280;7902;49.042;9.092;2023-04-04T05:37:26;99942.78;;;4.78;50.18
15604;BME280;7902;49.042;9.092;2023-04-04T05:39:52;99941.88;;;4.79;50.04
15604;BME280;7902;49.042;9.092;2023-04-04T05:42:18;99947.78;;;4.84;50.10
15604;BME280;7902;49.042;9.092;2023-04-04T05:44:44;99941.75;;;4.82;50.60
15604;BME280;7902;49.042;9.092;2023-04-04T05:47:10;99945.34;;;4.80;50.28
15604;BME280;7902;49.042;9.092;2023-04-04T05:49:36;99946.97;;;4.82;50.30
15604;BME280;7902;49.042;9.092;2023-04-04T05:52:02;99950.38;;;4.84;50.32
15604;BME280;7902;49.042;9.092;2023-04-04T05:54:28;99946.84;;;4.85;49.95
15604;BME280;7902;49.042;9.092;2023-04-04T05:56:53;99950.28;;;4.86;50.31
15604;BME280;7902;49.042;9.092;2023-04-04T05:59:20;99949.69;;;4.79;50.24
15604;BME280;7902;49.042;9.092;2023-04-04T06:01:46;99953.22;;;4.77;50.48
15604;BME280;7902;49.042;9.092;2023-04-04T06:04:12;99958.22;;;4.83;50.06
15604;BME280;7902;49.042;9.092;2023-04-04T06:06:38;99952.91;;;4.86;50.34
15604;BME280;7902;49.042;9.092;2023-04-04T06:09:04;99954.66;;;4.85;50.09
15604;BME280;7902;49.042;9.092;2023-04-04T06:11:30;99951.63;;;4.98;50.17
15604;BME280;7902;49.042;9.092;2023-04-04T06:13:56;99951.72;;;4.95;49.95
15604;BME280;7902;49.042;9.092;2023-04-04T06:16:22;99962.72;;;5.03;49.44
15604;BME280;7902;49.042;9.092;2023-04-04T06:18:49;99960.81;;;5.08;49.71
15604;BME280;7902;49.042;9.092;2023-04-04T06:21:14;99957.69;;;4.98;49.92
15604;BME280;7902;49.042;9.092;2023-04-04T06:23:40;99966.56;;;5.16;49.54
15604;BME280;7902;49.042;9.092;2023-04-04T06:26:06;99969.84;;;5.21;49.78
15604;BME280;7902;49.042;9.092;2023-04-04T06:28:33;99962.91;;;5.21;49.63
15604;BME280;7902;49.042;9.092;2023-04-04T06:30:58;99963.59;;;5.26;49.11
15604;BME280;7902;49.042;9.092;2023-04-04T06:33:25;99960.97;;;5.26;49.16
15604;BME280;7902;49.042;9.092;2023-04-04T06:35:50;99955.81;;;5.25;49.61
15604;BME280;7902;49.042;9.092;2023-04-04T06:38:16;99959.81;;;5.34;49.36
15604;BME280;7902;49.042;9.092;2023-04-04T06:40:42;99953.31;;;5.45;49.21
15604;BME280;7902;49.042;9.092;2023-04-04T06:43:08;99953.81;;;5.55;48.88
15604;BME280;7902;49.042;9.092;2023-04-04T06:45:34;99957.28;;;5.55;49.03
15604;BME280;7902;49.042;9.092;2023-04-04T06:48:01;99953.75;;;5.56;48.95
15604;BME280;7902;49.042;9.092;2023-04-04T06:50:29;99950.91;;;5.62;49.03
15604;BME280;7902;49.042;9.092;2023-04-04T06:52:59;99952.19;;;5.74;48.77
15604;BME280;7902;49.042;9.092;2023-04-04T06:55:25;99946.66;;;5.82;48.69
15604;BME280;7902;49.042;9.092;2023-04-04T06:57:53;99952.22;;;5.96;48.63
15604;BME280;7902;49.042;9.092;2023-04-04T07:00:19;99954.31;;;6.08;48.29
15604;BME280;7902;49.042;9.092;2023-04-04T07:02:45;99952.09;;;5.99;47.45
15604;BME280;7902;49.042;9.092;2023-04-04T07:05:11;99947.28;;;6.10;47.65
15604;BME280;7902;49.042;9.092;2023-04-04T07:07:39;99949.72;;;6.14;47.70
15604;BME280;7902;49.042;9.092;2023-04-04T07:10:05;99954.03;;;6.15;47.23
15604;BME280;7902;49.042;9.092;2023-04-04T07:12:31;99952.78;;;6.24;47.58
15604;BME280;7902;49.042;9.092;2023-04-04T07:14:57;99943.03;;;6.29;47.56
15604;BME280;7902;49.042;9.092;2023-04-04T07:17:23;99945.06;;;6.43;47.24
15604;BME280;7902;49.042;9.092;2023-04-04T07:19:49;99946.41;;;6.51;46.20
15604;BME280;7902;49.042;9.092;2023-04-04T07:22:15;99948.06;;;6.54;47.09
15604;BME280;7902;49.042;9.092;2023-04-04T07:24:41;99947.38;;;6.69;46.57
15604;BME280;7902;49.042;9.092;2023-04-04T07:27:07;99944.91;;;6.66;46.99
15604;BME280;7902;49.042;9.092;2023-04-04T07:29:33;99953.78;;;6.82;47.09
15604;BME280;7902;49.042;9.092;2023-04-04T07:31:59;99956.13;;;6.88;46.43
15604;BME280;7902;49.042;9.092;2023-04-04T07:34:25;99955.00;;;6.94;46.38
15604;BME280;7902;49.042;9.092;2023-04-04T07:36:51;99941.81;;;6.97;46.23
15604;BME280;7902;49.042;9.092;2023-04-04T07:39:18;99944.66;;;7.11;45.65
15604;BME280;7902;49.042;9.092;2023-04-04T07:41:44;99950.25;;;7.22;46.41
15604;BME280;7902;49.042;9.092;2023-04-04T07:44:10;99943.69;;;7.32;45.86
15604;BME280;7902;49.042;9.092;2023-04-04T07:46:36;99939.66;;;7.25;45.46
15604;BME280;7902;49.042;9.092;2023-04-04T07:49:02;99937.47;;;7.35;45.68
15604;BME280;7902;49.042;9.092;2023-04-04T07:51:28;99936.50;;;7.37;45.55
15604;BME280;7902;49.042;9.092;2023-04-04T07:53:56;99942.41;;;7.41;45.36
15604;BME280;7902;49.042;9.092;2023-04-04T07:56:22;99945.59;;;7.47;44.96
15604;BME280;7902;49.042;9.092;2023-04-04T07:58:48;99936.47;;;7.56;45.04
15604;BME280;7902;49.042;9.092;2023-04-04T08:01:14;99936.03;;;7.65;45.24
15604;BME280;7902;49.042;9.092;2023-04-04T08:03:40;99940.44;;;7.65;45.19
15604;BME280;7902;49.042;9.092;2023-04-04T08:06:06;99926.28;;;7.69;44.32
15604;BME280;7902;49.042;9.092;2023-04-04T08:08:32;99921.56;;;7.77;44.68
15604;BME280;7902;49.042;9.092;2023-04-04T08:10:57;99924.94;;;7.79;44.63
15604;BME280;7902;49.042;9.092;2023-04-04T08:13:23;99927.72;;;7.93;44.08
15604;BME280;7902;49.042;9.092;2023-04-04T08:15:49;99927.09;;;7.88;44.16
15604;BME280;7902;49.042;9.092;2023-04-04T08:18:15;99928.34;;;7.98;43.96
15604;BME280;7902;49.042;9.092;2023-04-04T08:20:41;99931.31;;;8.09;44.30
15604;BME280;7902;49.042;9.092;2023-04-04T08:23:07;99930.84;;;8.18;43.74
15604;BME280;7902;49.042;9.092;2023-04-04T08:25:33;99926.69;;;8.14;43.62
15604;BME280;7902;49.042;9.092;2023-04-04T08:27:59;99930.84;;;8.18;43.49
15604;BME280;7902;49.042;9.092;2023-04-04T08:30:25;99926.66;;;8.33;43.44
15604;BME280;7902;49.042;9.092;2023-04-04T08:32:51;99926.56;;;8.34;42.51
15604;BME280;7902;49.042;9.092;2023-04-04T08:35:17;99931.09;;;8.31;42.91
15604;BME280;7902;49.042;9.092;2023-04-04T08:37:44;99928.44;;;8.32;42.72
15604;BME280;7902;49.042;9.092;2023-04-04T08:40:11;99924.56;;;8.40;43.14
15604;BME280;7902;49.042;9.092;2023-04-04T08:42:39;99932.13;;;8.46;42.75
15604;BME280;7902;49.042;9.092;2023-04-04T08:45:07;99927.19;;;8.57;42.52
15604;BME280;7902;49.042;9.092;2023-04-04T08:47:34;99934.44;;;8.52;41.62
15604;BME280;7902;49.042;9.092;2023-04-04T08:50:06;99931.66;;;8.55;41.79
15604;BME280;7902;49.042;9.092;2023-04-04T08:52:33;99929.03;;;8.55;42.09
15604;BME280;7902;49.042;9.092;2023-04-04T08:55:08;99926.63;;;8.67;41.58
15604;BME280;7902;49.042;9.092;2023-04-04T08:57:35;99929.22;;;8.67;42.08
15604;BME280;7902;49.042;9.092;2023-04-04T09:00:02;99925.94;;;8.64;41.86
15604;BME280;7902;49.042;9.092;2023-04-04T09:05:34;99936.47;;;8.79;41.36
15604;BME280;7902;49.042;9.092;2023-04-04T09:08:01;99937.03;;;8.69;41.73
15604;BME280;7902;49.042;9.092;2023-04-04T09:10:29;99936.72;;;8.75;40.96
15604;BME280;7902;49.042;9.092;2023-04-04T09:12:56;99937.09;;;8.67;41.82
15604;BME280;7902;49.042;9.092;2023-04-04T09:15:22;99935.38;;;8.84;41.62
15604;BME280;7902;49.042;9.092;2023-04-04T09:17:48;99930.25;;;8.65;41.63
15604;BME280;7902;49.042;9.092;2023-04-04T09:20:33;99927.16;;;8.74;41.86
15604;BME280;7902;49.042;9.092;2023-04-04T09:23:00;99934.97;;;8.91;41.01
15604;BME280;7902;49.042;9.092;2023-04-04T09:25:26;99930.59;;;8.92;41.27
15604;BME280;7902;49.042;9.092;2023-04-04T09:27:52;99923.81;;;8.88;41.40
15604;BME280;7902;49.042;9.092;2023-04-04T09:30:19;99927.66;;;8.98;40.84
15604;BME280;7902;49.042;9.092;2023-04-04T09:32:45;99929.47;;;8.80;41.92
15604;BME280;7902;49.042;9.092;2023-04-04T09:35:12;99932.53;;;8.88;42.08
15604;BME280;7902;49.042;9.092;2023-04-04T09:37:40;99928.31;;;9.01;41.32
15604;BME280;7902;49.042;9.092;2023-04-04T09:40:10;99930.34;;;8.96;40.75
15604;BME280;7902;49.042;9.092;2023-04-04T09:42:38;99924.78;;;9.02;41.00
15604;BME280;7902;49.042;9.092;2023-04-04T09:45:05;99924.13;;;8.99;41.28
15604;BME280;7902;49.042;9.092;2023-04-04T09:47:31;99920.03;;;8.93;41.50
15604;BME280;7902;49.042;9.092;2023-04-04T09:49:59;99924.53;;;9.07;41.39
15604;BME280;7902;49.042;9.092;2023-04-04T09:52:25;99927.41;;;9.02;41.61
15604;BME280;7902;49.042;9.092;2023-04-04T09:54:59;99935.28;;;9.02;41.07
15604;BME280;7902;49.042;9.092;2023-04-04T09:57:27;99931.97;;;9.14;41.54
15604;BME280;7902;49.042;9.092;2023-04-04T10:00:01;99931.13;;;9.14;39.94
15604;BME280;7902;49.042;9.092;2023-04-04T10:02:29;99920.41;;;9.18;40.38
15604;BME280;7902;49.042;9.092;2023-04-04T10:04:55;99924.38;;;9.10;40.75
15604;BME280;7902;49.042;9.092;2023-04-04T10:07:29;99919.59;;;9.18;40.77
15604;BME280;7902;49.042;9.092;2023-04-04T10:09:55;99920.09;;;9.24;41.72
15604;BME280;7902;49.042;9.092;2023-04-04T10:12:25;99917.88;;;9.17;42.01
15604;BME280;7902;49.042;9.092;2023-04-04T10:15:01;99920.41;;;9.18;41.51
15604;BME280;7902;49.042;9.092;2023-04-04T10:17:35;99922.09;;;9.19;41.00
15604;BME280;7902;49.042;9.092;2023-04-04T10:20:03;99909.28;;;9.31;40.26
15604;BME280;7902;49.042;9.092;2023-04-04T10:22:35;99912.81;;;9.30;41.56
15604;BME280;7902;49.042;9.092;2023-04-04T10:25:05;99911.91;;;9.31;41.06
15604;BME280;7902;49.042;9.092;2023-04-04T10:27:32;99905.72;;;9.32;40.88
15604;BME280;7902;49.042;9.092;2023-04-04T10:30:01;99913.84;;;9.43;40.98
15604;BME280;7902;49.042;9.092;2023-04-04T10:32:46;99910.72;;;9.52;41.48
15604;BME280;7902;49.042;9.092;2023-04-04T10:35:16;99899.47;;;9.50;40.86
15604;BME280;7902;49.042;9.092;2023-04-04T10:37:52;99901.19;;;9.51;41.25
15604;BME280;7902;49.042;9.092;2023-04-04T10:40:20;99908.44;;;9.46;41.17
15604;BME280;7902;49.042;9.092;2023-04-04T10:42:49;99907.94;;;9.55;41.54
15604;BME280;7902;49.042;9.092;2023-04-04T10:45:15;99901.75;;;9.56;41.73
15604;BME280;7902;49.042;9.092;2023-04-04T10:47:43;99889.72;;;9.52;40.82
15604;BME280;7902;49.042;9.092;2023-04-04T10:50:09;99902.59;;;9.56;40.10
15604;BME280;7902;49.042;9.092;2023-04-04T10:52:39;99899.88;;;9.58;41.74
15604;BME280;7902;49.042;9.092;2023-04-04T10:55:10;99901.59;;;9.59;41.81
15604;BME280;7902;49.042;9.092;2023-04-04T10:57:43;99889.47;;;9.72;40.33
15604;BME280;7902;49.042;9.092;2023-04-04T11:00:11;99890.84;;;9.79;40.65
15604;BME280;7902;49.042;9.092;2023-04-04T11:05:22;99883.56;;;9.68;42.08
15604;BME280;7902;49.042;9.092;2023-04-04T11:08:08;99887.84;;;9.85;41.39
15604;BME280;7902;49.042;9.092;2023-04-04T11:10:42;99887.75;;;9.87;41.74
15604;BME280;7902;49.042;9.092;2023-04-04T11:13:19;99874.72;;;9.85;41.47
15604;BME280;7902;49.042;9.092;2023-04-04T11:15:59;99875.66;;;9.84;41.64
15604;BME280;7902;49.042;9.092;2023-04-04T11:21:20;99870.31;;;10.01;39.99
15604;BME280;7902;49.042;9.092;2023-04-04T11:28:57;99873.50;;;10.06;41.02
15604;BME280;7902;49.042;9.092;2023-04-04T11:31:49;99871.41;;;9.97;41.28
15604;BME280;7902;49.042;9.092;2023-04-04T11:34:15;99871.63;;;10.08;40.97
15604;BME280;7902;49.042;9.092;2023-04-04T11:36:53;99870.03;;;10.06;40.34
15604;BME280;7902;49.042;9.092;2023-04-04T11:42:11;99867.13;;;10.10;42.06
15604;BME280;7902;49.042;9.092;2023-04-04T11:45:01;99868.91;;;10.10;42.34
15604;BME280;7902;49.042;9.092;2023-04-04T11:47:28;99870.03;;;10.22;41.93
15604;BME280;7902;49.042;9.092;2023-04-04T11:49:59;99859.53;;;10.22;40.25
15604;BME280;7902;49.042;9.092;2023-04-04T11:52:31;99865.16;;;10.30;41.34
15604;BME280;7902;49.042;9.092;2023-04-04T11:54:58;99860.75;;;10.30;41.60
15604;BME280;7902;49.042;9.092;2023-04-04T11:57:24;99865.13;;;10.16;42.44
15604;BME280;7902;49.042;9.092;2023-04-04T11:59:50;99861.19;;;10.23;41.74
15604;BME280;7902;49.042;9.092;2023-04-04T12:02:22;99851.47;;;10.25;39.61
15604;BME280;7902;49.042;9.092;2023-04-04T12:04:52;99846.22;;;10.25;40.15
15604;BME280;7902;49.042;9.092;2023-04-04T12:07:18;99855.41;;;10.32;42.83
15604;BME280;7902;49.042;9.092;2023-04-04T12:09:44;99860.22;;;10.39;41.94
15604;BME280;7902;49.042;9.092;2023-04-04T12:12:14;99858.50;;;10.38;41.64
15604;BME280;7902;49.042;9.092;2023-04-04T12:14:43;99858.25;;;10.43;40.92
15604;BME280;7902;49.042;9.092;2023-04-04T12:17:09;99844.84;;;10.47;40.24
15604;BME280;7902;49.042;9.092;2023-04-04T12:19:36;99855.63;;;10.43;42.46
15604;BME280;7902;49.042;9.092;2023-04-04T12:22:06;99853.19;;;10.54;41.34
15604;BME280;7902;49.042;9.092;2023-04-04T12:24:35;99856.75;;;10.53;42.11
15604;BME280;7902;49.042;9.092;2023-04-04T12:27:01;99844.19;;;10.58;42.08
15604;BME280;7902;49.042;9.092;2023-04-04T12:29:29;99849.63;;;10.69;40.71
15604;BME280;7902;49.042;9.092;2023-04-04T12:32:01;99838.66;;;10.77;41.39
15604;BME280;7902;49.042;9.092;2023-04-04T12:34:29;99831.34;;;10.82;41.99
15604;BME280;7902;49.042;9.092;2023-04-04T12:36:56;99837.44;;;10.82;41.57
15604;BME280;7902;49.042;9.092;2023-04-04T12:39:27;99833.28;;;10.78;42.06
15604;BME280;7902;49.042;9.092;2023-04-04T12:41:56;99830.50;;;10.81;42.31
15604;BME280;7902;49.042;9.092;2023-04-04T12:46:56;99833.56;;;10.88;41.37
15604;BME280;7902;49.042;9.092;2023-04-04T12:49:46;99827.66;;;10.98;41.15
15604;BME280;7902;49.042;9.092;2023-04-04T12:52:17;99822.59;;;10.95;42.51
15604;BME280;7902;49.042;9.092;2023-04-04T12:54:45;99824.16;;;11.12;41.40
15604;BME280;7902;49.042;9.092;2023-04-04T12:57:17;99815.59;;;11.23;41.38
15604;BME280;7902;49.042;9.092;2023-04-04T12:59:45;99812.13;;;11.22;41.81
15604;BME280;7902;49.042;9.092;2023-04-04T13:02:14;99811.16;;;11.37;41.32
15604;BME280;7902;49.042;9.092;2023-04-04T13:04:45;99810.13;;;11.26;41.47
15604;BME280;7902;49.042;9.092;2023-04-04T13:07:26;99810.34;;;11.23;41.12
15604;BME280;7902;49.042;9.092;2023-04-04T13:10:00;99803.72;;;11.44;41.02
15604;BME280;7902;49.042;9.092;2023-04-04T13:18:14;99793.56;;;11.65;41.09
15604;BME280;7902;49.042;9.092;2023-04-04T13:20:40;99794.41;;;11.65;40.45
15604;BME280;7902;49.042;9.092;2023-04-04T13:23:06;99793.88;;;11.60;40.75
15604;BME280;7902;49.042;9.092;2023-04-04T13:25:32;99793.78;;;11.62;41.45
15604;BME280;7902;49.042;9.092;2023-04-04T13:27:58;99788.00;;;11.69;41.39
15604;BME280;7902;49.042;9.092;2023-04-04T13:30:24;99783.00;;;11.79;39.87
15604;BME280;7902;49.042;9.092;2023-04-04T13:32:51;99786.22;;;12.09;39.50
15604;BME280;7902;49.042;9.092;2023-04-04T13:35:17;99778.84;;;12.27;39.75
15604;BME280;7902;49.042;9.092;2023-04-04T13:37:43;99769.16;;;12.40;39.29
15604;BME280;7902;49.042;9.092;2023-04-04T13:40:10;99771.28;;;12.10;40.70
15604;BME280;7902;49.042;9.092;2023-04-04T13:42:36;99770.66;;;12.19;40.61
15604;BME280;7902;49.042;9.092;2023-04-04T13:45:02;99766.31;;;12.05;40.67
15604;BME280;7902;49.042;9.092;2023-04-04T13:47:28;99768.72;;;12.08;40.47